• Join FlightAware (Why Join?)
  • Login
  • US Flag 
09:02AM EST


 

Airport Tracker/Info


-or-


 

Live Flight TrackerFlight Track Log ✈ DAL110 ✈ 11-May-2013 ✈ KATL - KLAX

Flight Track Log - Related Links

Times and Time Zones

All times are in EDT time to prevent confusion due to time zone crossing. See the DAL110 flight status page for this flight to view local times or setup timezone preferences in your user account.

Time Position Orientation Groundspeed Altitude Reporting Facility
EDT Latitude Longitude Course Direction KTS MPH feet Rate Location/Type
08:46AM 33.6470 -84.4400 271° West 165 190 1,500  Level FlightAware
08:46AM 33.6480 -84.4670 273° West 170 196 2,700 2,040 Climbing FlightAware
08:47AM 33.6530 -84.4930 283° West 204 235 3,400 1,560 Climbing FlightAware
08:47AM 33.6540 -84.4990 281° West 215 247 3,500 2,040 Climbing FlightAware
08:47AM 33.6620 -84.5420 283° West 254 292 4,600 2,760 Climbing FlightAware
08:48AM 33.6700 -84.5830 283° West 261 300 6,300 3,360 Climbing FlightAware
08:48AM 33.6780 -84.6300 282° West 261 300 8,300 3,120 Climbing FlightAware
08:49AM 33.6810 -84.6500 280° West 263 303 8,900 2,220 Climbing FlightAware
08:49AM 33.6880 -84.6860 283° West 260 299 9,800 1,320 Climbing FlightAware
08:49AM 33.6930 -84.7200 280° West 292 336 9,900 1,620 Climbing FlightAware
08:50AM 33.7100 -84.8300 281° West 343 395 12,100 1,620 Climbing FlightAware
08:51AM 33.7200 -84.9050 279° West 348 400 12,800 2,640 Climbing FlightAware
08:52AM 33.7310 -84.9750 281° West 371 427 15,400 2,400 Climbing FlightAware
08:53AM 33.7480 -85.0980 279° West 379 436 16,800 3,000 Climbing FlightAware
08:53AM 33.7650 -85.2150 280° West 403 464 20,700 3,480 Climbing FlightAware
08:54AM 33.7790 -85.3030 281° West 402 463 21,800 1,800 Climbing FlightAware
08:55AM 33.7920 -85.3700 283° West 418 481 23,000 840 Climbing FlightAware
08:56AM 33.8110 -85.4790 282° West 418 481 23,000  Level FlightAware
08:56AM 33.8240 -85.5560 282° West 418 481 23,000  Level FlightAware
08:57AM 33.8380 -85.6330 282° West 418 481 23,000 5,820 Level FlightAware
08:58AM 33.8808 -85.7829 289° West 443 510 30,800 6,600 Climbing FlightAware ADS-B
08:58AM 33.9213 -85.9088 291° West 423 487 33,600 2,160 Climbing FlightAware ADS-B
08:59AM 33.9430 -85.9772 291° West 404 465 34,000 720 Climbing FlightAware ADS-B
09:00AM 33.9652 -86.0477 291° West 404 465 34,400 1,920 Climbing FlightAware ADS-B
09:00AM 33.9848 -86.1104 291° West 385 443 36,100 2,580 Climbing FlightAware ADS-B
09:01AM 34.0125 -86.2108 288° West 369 425 37,900 1,320 Climbing FlightAware ADS-B
09:02AM 34.0313 -86.2775 289° West 370 426 38,000 60 Climbing FlightAware ADS-B
09:02AM 34.0487 -86.3385 289° West 366 421 38,000  Level FlightAware ADS-B
09:03AM 34.0657 -86.3980 289° West 366 421 38,000  Level FlightAware ADS-B
09:03AM 34.0832 -86.4599 289° West 364 419 38,000  Level FlightAware ADS-B
09:04AM 34.1019 -86.5262 289° West 364 419 38,000  Level FlightAware ADS-B
09:04AM 34.1194 -86.5883 289° West 364 419 38,000  Level FlightAware ADS-B
09:05AM 34.1377 -86.6539 289° West 365 420 38,000  Level FlightAware ADS-B
09:06AM 34.1640 -86.7460 289° West 367 422 38,000  Level FlightAware
09:06AM 34.1820 -86.8120 288° West 367 422 38,000  Level FlightAware
09:07AM 34.2070 -86.9010 289° West 369 425 38,000  Level FlightAware
09:08AM 34.2070 -86.9010 289° West 370 426 38,000  Level FlightAware
09:08AM 34.2210 -86.9510 289° West 370 426 38,000  Level FlightAware
09:09AM 34.2400 -87.0180 289° West 370 426 38,000  Level FlightAware
09:10AM 34.2590 -87.0840 289° West 370 426 38,000  Level FlightAware
09:10AM 34.2780 -87.1510 289° West 370 426 38,000  Level FlightAware
09:11AM 34.3020 -87.2340 289° West 370 426 38,000  Level FlightAware
09:12AM 34.3210 -87.3010 289° West 370 426 38,000  Level FlightAware
09:12AM 34.3400 -87.3670 289° West 370 426 38,000  Level FlightAware
09:13AM 34.3590 -87.4340 289° West 370 426 38,000  Level FlightAware
09:14AM 34.3780 -87.5010 289° West 370 426 38,000  Level FlightAware
09:15AM 34.4010 -87.5840 289° West 370 426 38,000  Level FlightAware
09:15AM 34.4150 -87.6340 289° West 370 426 38,000  Level FlightAware
09:16AM 34.4340 -87.7010 289° West 370 426 38,000  Level FlightAware
09:16AM 34.4530 -87.7680 289° West 370 426 38,000  Level FlightAware
09:17AM 34.4720 -87.8340 289° West 370 426 38,000  Level FlightAware
09:18AM 34.5456 -88.1608 289° West 371 427 38,000  Level Memphis Center
09:19AM 34.5767 -88.2711 289° West 385 443 38,000  Level Memphis Center
09:20AM 34.6078 -88.3939 287° West 380 437 38,000  Level Memphis Center
09:21AM 34.6411 -88.5169 288° West 363 418 38,000  Level Memphis Center
09:22AM 34.6719 -88.6350 288° West 363 418 38,000  Level Memphis Center
09:23AM 34.7047 -88.7556 288° West 363 418 38,000  Level Memphis Center
09:24AM 34.7333 -88.8636 288° West 368 423 38,000  Level Memphis Center
09:25AM 34.7617 -88.9794 287° West 368 423 38,000  Level Memphis Center
09:26AM 34.7944 -89.1028 288° West 368 423 38,000  Level Memphis Center
09:27AM 34.8247 -89.2211 287° West 373 429 38,000  Level Memphis Center
09:28AM 34.8550 -89.3422 287° West 379 436 38,000  Level Memphis Center
09:29AM 34.8872 -89.4633 288° West 374 430 38,000  Level Memphis Center
09:30AM 34.9194 -89.5822 288° West 374 430 38,000  Level Memphis Center
09:31AM 34.9453 -89.7136 284° West 383 441 38,000  Level Memphis Center
09:32AM 34.9875 -89.8400 292° West 402 463 38,000  Level Memphis Center
09:33AM 35.0131 -89.9642 284° West 395 455 38,000  Level Memphis Center
09:34AM 35.0531 -90.0908 291° West 395 455 38,000  Level Memphis Center
09:35AM 35.0908 -90.2150 290° West 390 449 38,000  Level Memphis Center
09:36AM 35.1306 -90.3419 291° West 390 449 38,000  Level Memphis Center
09:37AM 35.1722 -90.4789 290° West 390 449 38,000  Level Memphis Center
09:38AM 35.2094 -90.6011 290° West 395 455 38,000  Level Memphis Center
09:39AM 35.2508 -90.7258 292° West 390 449 38,000  Level Memphis Center
09:40AM 35.2881 -90.8531 290° West 390 449 38,000  Level Memphis Center
09:41AM 35.3292 -90.9781 292° West 395 455 38,000  Level Memphis Center
09:42AM 35.3619 -91.1106 287° West 395 455 38,000  Level Memphis Center
09:43AM 35.4069 -91.2283 295° West 390 449 38,000  Level Memphis Center
09:44AM 35.4456 -91.3611 290° West 407 468 38,000  Level Memphis Center
09:45AM 35.4842 -91.4867 291° West 402 463 38,000  Level Memphis Center
09:46AM 35.5225 -91.6147 290° West 402 463 38,000  Level Memphis Center
09:47AM 35.5650 -91.7481 291° West 407 468 38,000  Level Memphis Center
09:48AM 35.6050 -91.8814 290° West 407 468 38,000  Level Memphis Center
09:49AM 35.6431 -92.0175 289° West 413 475 38,000  Level Memphis Center
09:50AM 35.6828 -92.1486 290° West 413 475 38,000  Level Memphis Center
09:51AM 35.7228 -92.2800 291° West 413 475 38,000  Level Memphis Center
09:52AM 35.7603 -92.4114 289° West 413 475 38,000  Level Memphis Center
09:53AM 35.7994 -92.5481 289° West 413 475 38,000  Level Memphis Center
09:54AM 35.8367 -92.6819 289° West 413 475 38,000  Level Memphis Center
09:55AM 35.8781 -92.8189 290° West 413 475 38,000  Level Memphis Center
09:56AM 35.9169 -92.9561 289° West 418 481 38,000  Level Memphis Center
09:57AM 35.9578 -93.0931 290° West 423 487 38,000  Level Memphis Center
09:58AM 35.9983 -93.2331 290° West 428 493 38,000  Level Memphis Center
09:59AM 36.0367 -93.3731 289° West 428 493 38,000  Level Memphis Center
10:00AM 36.0750 -93.5156 288° West 428 493 38,000  Level Memphis Center
10:01AM 36.1128 -93.6583 288° West 428 493 38,000  Level Memphis Center
10:02AM 36.1550 -93.7989 290° West 433 498 38,000  Level Memphis Center
10:03AM 36.1925 -93.9419 288° West 433 498 38,000  Level Memphis Center
10:04AM 36.2303 -94.0825 288° West 438 504 38,000  Level Memphis Center
10:05AM 36.2425 -94.2272 276° West 427 491 38,000  Level Memphis Center
10:06AM 36.2397 -94.3764 269° West 427 491 38,000  Level Memphis Center
10:07AM 36.2347 -94.5278 268° West 427 491 38,000  Level Memphis Center
10:08AM 36.2353 -94.7294 270° West 436 502 38,000  Level Kansas City Center
10:09AM 36.2317 -94.8806 268° West 437 503 38,000  Level Kansas City Center
10:10AM 36.2275 -95.0311 268° West 437 503 38,000  Level Kansas City Center
10:11AM 36.2233 -95.1794 268° West 434 499 38,000  Level Kansas City Center
10:17AM 36.1970 -96.0560 268° West 442 509 38,000  Level FlightAware
10:18AM 36.1930 -96.1980 268° West 445 512 38,000  Level FlightAware
10:19AM 36.1880 -96.3340 267° West 446 513 38,000  Level FlightAware
10:19AM 36.1830 -96.4530 267° West 447 514 38,000  Level FlightAware
10:20AM 36.1800 -96.5570 268° West 448 516 38,000  Level FlightAware
10:21AM 36.1760 -96.6600 267° West 450 518 38,000  Level FlightAware
10:22AM 36.1710 -96.7720 267° West 451 519 38,000  Level FlightAware
10:22AM 36.1670 -96.8680 267° West 452 520 38,000  Level FlightAware
10:23AM 36.1630 -96.9690 267° West 452 520 38,000  Level FlightAware
10:23AM 36.1610 -97.0280 268° West 452 520 38,000  Level FlightAware
10:24AM 36.1560 -97.1120 266° West 452 520 38,000  Level FlightAware
10:24AM 36.1510 -97.1990 266° West 452 520 38,000  Level FlightAware
10:25AM 36.1470 -97.3540 268° West 459 528 38,000  Level FlightAware
10:26AM 36.1430 -97.4390 267° West 459 528 38,000  Level FlightAware
10:27AM 36.1370 -97.5730 267° West 461 531 38,000  Level FlightAware
10:27AM 36.1320 -97.6810 267° West 462 532 38,000  Level FlightAware
10:28AM 36.1270 -97.7780 266° West 462 532 38,000  Level FlightAware
10:29AM 36.1210 -97.9060 267° West 459 528 38,000  Level FlightAware
10:29AM 36.1160 -98.0090 267° West 459 528 38,000  Level FlightAware
10:30AM 36.1100 -98.1160 266° West 460 529 38,000  Level FlightAware
10:31AM 36.1050 -98.2350 267° West 460 529 38,000  Level FlightAware
10:32AM 36.0990 -98.3430 266° West 461 531 38,000  Level FlightAware
10:33AM 36.0910 -98.4860 266° West 463 533 38,000  Level FlightAware
10:33AM 36.0860 -98.5840 266° West 465 535 38,000  Level FlightAware
10:34AM 36.0780 -98.7200 266° West 467 537 38,000  Level FlightAware
10:35AM 36.0710 -98.8560 266° West 467 537 38,000  Level FlightAware
10:36AM 36.0660 -98.9460 266° West 467 537 38,000  Level FlightAware
10:36AM 36.0600 -99.0370 265° West 467 537 38,000  Level FlightAware
10:37AM 36.0570 -99.1050 267° West 467 537 38,000  Level FlightAware
10:38AM 36.0500 -99.2180 266° West 467 537 38,000  Level FlightAware
10:38AM 36.0460 -99.2860 266° West 467 537 38,000  Level FlightAware
10:39AM 36.0410 -99.3770 266° West 467 537 38,000  Level FlightAware
10:39AM 36.0360 -99.4670 266° West 467 537 38,000  Level FlightAware
10:40AM 36.0310 -99.5580 266° West 467 537 38,000  Level FlightAware
10:41AM 36.0240 -99.6710 266° West 467 537 38,000  Level FlightAware
10:42AM 36.0190 -99.7620 266° West 467 537 38,000  Level FlightAware
10:42AM 36.0150 -99.8300 266° West 467 537 38,000  Level FlightAware
10:43AM 36.0120 -99.8980 267° West 467 537 38,000  Level FlightAware
10:43AM 36.0060 -99.9880 265° West 467 537 38,000  Level FlightAware
10:44AM 35.9867 -100.3136 265° West 471 542 38,000  Level Kansas City Center
10:45AM 35.9783 -100.4767 266° West 475 547 38,000  Level Kansas City Center
10:46AM 35.9686 -100.6381 266° West 474 545 38,000  Level Albuquerque Center
10:47AM 35.9594 -100.8339 267° West 476 548 38,000  Level Albuquerque Center
10:48AM 35.9517 -100.9833 266° West 476 548 38,000  Level Albuquerque Center
10:49AM 35.9433 -101.1458 266° West 476 548 38,000  Level Albuquerque Center
10:50AM 35.9347 -101.3083 266° West 478 550 38,000  Level Albuquerque Center
10:51AM 35.9228 -101.5028 266° West 479 551 38,000  Level Albuquerque Center
10:52AM 35.9136 -101.6661 266° West 480 552 38,000  Level Albuquerque Center
10:53AM 35.9042 -101.8283 266° West 480 552 38,000  Level Albuquerque Center
10:54AM 35.8947 -101.9933 266° West 484 557 38,000  Level Albuquerque Center
10:55AM 35.8839 -102.1564 265° West 483 556 38,000  Level Albuquerque Center
10:56AM 35.8736 -102.3194 266° West 482 555 38,000  Level Albuquerque Center
10:57AM 35.8603 -102.5161 265° West 482 555 38,000  Level Albuquerque Center
10:58AM 35.8492 -102.6817 265° West 486 559 38,000  Level Albuquerque Center
10:59AM 35.8389 -102.8458 266° West 484 557 38,000  Level Albuquerque Center
11:00AM 35.8256 -103.0289 265° West 488 562 38,000  Level Albuquerque Center
11:02AM 35.8136 -103.1947 265° West 485 558 38,000  Level Albuquerque Center
11:03AM 35.8014 -103.3611 265° West 484 557 38,000  Level Albuquerque Center
11:04AM 35.7894 -103.5283 265° West 487 560 38,000  Level Albuquerque Center
11:05AM 35.7764 -103.6942 265° West 486 559 38,000  Level Albuquerque Center
11:06AM 35.7636 -103.8606 265° West 486 559 38,000  Level Albuquerque Center
11:07AM 35.7514 -104.0267 265° West 487 560 38,000  Level Albuquerque Center
11:08AM 35.7353 -104.2200 264° West 487 560 38,000  Level Albuquerque Center
11:09AM 35.7217 -104.3881 264° West 491 565 38,000  Level Albuquerque Center
11:10AM 35.7069 -104.5564 264° West 494 568 38,000  Level Albuquerque Center
11:11AM 35.6933 -104.7244 264° West 494 568 38,000  Level Albuquerque Center
11:12AM 35.6783 -104.8939 264° West 496 571 38,000  Level Albuquerque Center
11:18AM 35.3850 -105.8930 264° West 497 572 38,000  Level FlightAware
11:19AM 35.3320 -106.0380 246° West 487 560 38,000  Level FlightAware
11:20AM 35.2900 -106.1520 246° West 484 557 38,000  Level FlightAware
11:20AM 35.2540 -106.2500 246° West 483 556 38,000  Level FlightAware
11:21AM 35.2270 -106.3250 246° West 484 557 38,000  Level FlightAware
11:22AM 35.1800 -106.4500 245° Southwest 488 562 38,000  Level FlightAware
11:22AM 35.1370 -106.5660 246° West 487 560 38,000  Level FlightAware
11:23AM 35.1020 -106.6620 246° West 488 562 38,000  Level FlightAware
11:24AM 35.0590 -106.7770 245° Southwest 490 564 38,000  Level FlightAware
11:25AM 35.0420 -106.8860 259° West 487 560 38,000  Level FlightAware
11:25AM 35.0380 -107.0100 268° West 491 565 38,000  Level FlightAware
11:26AM 35.0360 -107.1230 269° West 492 566 38,000  Level FlightAware
11:27AM 35.0330 -107.2310 268° West 489 563 38,000  Level FlightAware
11:27AM 35.0300 -107.3520 268° West 486 559 38,000  Level FlightAware
11:28AM 35.0270 -107.4620 268° West 485 558 38,000  Level FlightAware
11:29AM 35.0240 -107.5700 268° West 486 559 38,000  Level FlightAware
11:29AM 35.0200 -107.6810 268° West 488 562 38,000  Level FlightAware
11:30AM 35.0180 -107.7630 268° West 489 563 38,000  Level FlightAware
11:31AM 35.0140 -107.8730 267° West 489 563 38,000  Level FlightAware
11:31AM 35.0100 -107.9960 268° West 490 564 38,000  Level FlightAware
11:32AM 35.0060 -108.1100 268° West 489 563 38,000  Level FlightAware
11:33AM 35.0020 -108.2200 267° West 490 564 38,000  Level FlightAware
11:33AM 34.9980 -108.3400 268° West 489 563 38,000  Level FlightAware
11:34AM 34.9940 -108.4510 268° West 490 564 38,000  Level FlightAware
11:35AM 34.9890 -108.5740 267° West 492 566 38,000  Level FlightAware
11:35AM 34.9850 -108.6880 268° West 493 567 38,000  Level FlightAware
11:36AM 34.9810 -108.7770 267° West 492 566 38,000  Level FlightAware
11:37AM 34.9760 -108.8950 267° West 492 566 38,000  Level FlightAware
11:37AM 34.9720 -109.0110 268° West 490 564 38,000  Level FlightAware
11:38AM 34.9660 -109.1390 267° West 491 565 38,000  Level FlightAware
11:39AM 34.9590 -109.2680 266° West 492 566 38,000  Level FlightAware
11:40AM 34.9510 -109.3750 265° West 494 568 38,000  Level FlightAware
11:40AM 34.9420 -109.5000 265° West 494 568 38,000  Level FlightAware
11:41AM 34.9350 -109.6080 266° West 494 568 38,000  Level FlightAware
11:42AM 34.9230 -109.7760 265° West 496 571 38,000  Level FlightAware
11:43AM 34.9150 -109.9040 266° West 496 571 38,000  Level FlightAware
11:43AM 34.9060 -110.0170 264° West 499 574 38,000  Level FlightAware
11:44AM 34.8970 -110.1410 265° West 502 578 38,000  Level FlightAware
11:45AM 34.8890 -110.2510 265° West 498 573 38,000  Level FlightAware
11:46AM 34.8770 -110.3810 264° West 498 573 38,000  Level FlightAware
11:46AM 34.8650 -110.4920 263° West 497 572 38,000  Level FlightAware
11:47AM 34.8500 -110.6130 261° West 501 577 38,000  Level FlightAware
11:48AM 34.8360 -110.7270 262° West 503 579 38,000  Level FlightAware
11:48AM 34.8230 -110.8380 262° West 503 579 38,000  Level FlightAware
11:49AM 34.8070 -110.9670 261° West 503 579 38,000  Level FlightAware
11:50AM 34.7930 -111.0780 261° West 502 578 38,000  Level FlightAware
11:51AM 34.7780 -111.2020 262° West 503 579 38,000  Level FlightAware
11:51AM 34.7640 -111.3100 261° West 504 580 38,000  Level FlightAware
11:52AM 34.7490 -111.4240 261° West 505 581 38,000  Level FlightAware
11:53AM 34.7330 -111.5540 262° West 505 581 38,000  Level FlightAware
11:53AM 34.7190 -111.6610 261° West 504 580 38,000  Level FlightAware
11:54AM 34.7040 -111.7770 261° West 505 581 38,000  Level FlightAware
11:55AM 34.6880 -111.8990 261° West 503 579 38,000  Level FlightAware
11:55AM 34.6710 -112.0280 261° West 502 578 38,000  Level FlightAware
11:56AM 34.6580 -112.1240 261° West 502 578 38,000  Level FlightAware
11:57AM 34.6470 -112.2060 261° West 501 577 38,000  Level FlightAware
11:57AM 34.6320 -112.3170 261° West 499 574 38,000  Level FlightAware
11:58AM 34.6150 -112.4390 260° West 503 579 38,000  Level FlightAware
11:58AM 34.6030 -112.5280 261° West 503 579 38,000  Level FlightAware
11:59AM 34.5880 -112.6400 261° West 506 582 38,000  Level FlightAware
12:00PM 34.5720 -112.7510 260° West 507 583 38,000  Level FlightAware
12:01PM 34.5550 -112.8740 261° West 506 582 38,000  Level FlightAware
12:01PM 34.5390 -112.9850 260° West 499 574 38,000  Level FlightAware
12:02PM 34.5210 -113.1130 260° West 498 573 38,000  Level FlightAware
12:03PM 34.5060 -113.2210 260° West 499 574 38,000  Level FlightAware
12:03PM 34.4900 -113.3300 260° West 499 574 38,000  Level FlightAware
12:04PM 34.4720 -113.4530 260° West 499 574 38,000  Level FlightAware
12:05PM 34.4570 -113.5600 260° West 498 573 38,000  Level FlightAware
12:05PM 34.4380 -113.6870 260° West 496 571 38,000  Level FlightAware
12:06PM 34.4220 -113.7980 260° West 499 574 38,000  Level FlightAware
12:07PM 34.4040 -113.9170 260° West 494 568 38,000  Level FlightAware
12:08PM 34.3880 -114.0260 260° West 494 568 38,000  Level FlightAware
12:08PM 34.3670 -114.1630 260° West 497 572 38,000 -360 Level FlightAware
12:09PM 34.3520 -114.2620 260° West 500 575 37,500 -900 Descending FlightAware
12:10PM 34.3380 -114.3550 260° West 496 571 37,000 -1,080 Descending FlightAware
12:10PM 34.3240 -114.4480 260° West 493 567 36,300 -540 Descending FlightAware
12:11PM 34.3060 -114.5540 258° West 493 567 36,300  Level FlightAware
12:11PM 34.2950 -114.6230 259° West 493 567 36,300  Level FlightAware
12:12PM 34.2770 -114.7380 259° West 493 567 36,300 -1,560 Level FlightAware
12:13PM 34.2540 -114.8930 260° West 498 573 34,000 -1,740 Descending FlightAware
12:14PM 34.2370 -114.9990 259° West 518 596 34,000  Level FlightAware
12:14PM 34.2160 -115.1340 259° West 525 604 34,000  Level FlightAware
12:15PM 34.1970 -115.2520 259° West 525 604 34,000  Level FlightAware
12:16PM 34.1780 -115.3660 259° West 524 603 34,000  Level FlightAware
12:16PM 34.1600 -115.4790 259° West 524 603 34,000  Level FlightAware
12:17PM 34.1390 -115.6050 259° West 508 585 34,000 -1,140 Level FlightAware
12:18PM 34.1190 -115.7290 259° West 502 578 32,300 -1,920 Descending FlightAware
12:18PM 34.1020 -115.8400 260° West 499 574 31,300 -1,380 Descending FlightAware
12:19PM 34.0840 -115.9590 260° West 492 566 30,400 -1,320 Descending FlightAware
12:20PM 34.0700 -116.0550 260° West 487 560 29,600 -1,200 Descending FlightAware
12:21PM 34.0530 -116.1680 260° West 479 551 28,800 -1,140 Descending FlightAware
12:21PM 34.0390 -116.2650 260° West 463 533 28,100 -1,140 Descending FlightAware
12:22PM 34.0240 -116.3640 260° West 441 507 27,400 -1,080 Descending FlightAware
12:23PM 34.0080 -116.4680 260° West 412 474 26,600 -1,560 Descending FlightAware
12:23PM 34.0000 -116.5560 264° West 397 457 25,200 -2,100 Descending FlightAware
12:24PM 33.9920 -116.6570 265° West 385 443 23,700 -2,100 Descending FlightAware
12:25PM 33.9850 -116.7410 264° West 378 435 22,300 -2,040 Descending FlightAware
12:25PM 33.9780 -116.8230 264° West 371 427 21,000 -1,980 Descending FlightAware
12:26PM 33.9710 -116.9120 265° West 364 419 19,500 -1,920 Descending FlightAware
12:27PM 33.9650 -116.9840 264° West 357 411 18,500 -1,620 Descending FlightAware
12:27PM 33.9580 -117.0700 264° West 348 400 17,400 -1,380 Descending FlightAware
12:28PM 33.9510 -117.1470 264° West 338 389 16,600 -1,200 Descending FlightAware
12:29PM 33.9440 -117.2390 265° West 332 382 15,600 -1,320 Descending FlightAware
12:29PM 33.9380 -117.3050 264° West 330 380 14,800 -1,440 Descending FlightAware
12:30PM 33.9340 -117.3600 265° West 326 375 14,100 -1,200 Descending FlightAware
12:30PM 33.9410 -117.4000 282° West 320 368 13,600 -1,380 Descending FlightAware
12:31PM 33.9740 -117.4930 293° West 316 364 12,300 -1,500 Descending FlightAware
12:32PM 33.9940 -117.5490 293° West 315 362 11,500 -1,380 Descending FlightAware
12:33PM 34.0120 -117.6140 288° West 316 364 10,600 -1,320 Descending FlightAware
12:33PM 34.0090 -117.6650 266° West 307 353 10,000 -900 Descending FlightAware
12:33PM 34.0050 -117.7100 264° West 303 349 9,800 -900 Descending FlightAware
12:34PM 34.0020 -117.7330 261° West 306 352 9,400 -1,200 Descending FlightAware
12:34PM 33.9970 -117.7820 263° West 306 352 8,900 -1,200 Descending FlightAware
12:35PM 33.9930 -117.8250 264° West 306 352 8,300 -1,440 Descending FlightAware
12:35PM 33.9880 -117.8780 264° West 304 350 7,600 -1,200 Descending FlightAware
12:35PM 33.9850 -117.9030 262° West 302 348 7,400 -1,080 Descending FlightAware
12:38PM 33.9650 -118.1110 263° West 268 308 5,100 -1,020 Descending FlightAware
12:38PM 33.9610 -118.1530 263° West 244 281 4,700 -1,200 Descending FlightAware
12:39PM 33.9570 -118.1930 263° West 235 270 3,900 -1,560 Descending FlightAware
12:39PM 33.9540 -118.2240 263° West 223 257 3,300 -1,080 Descending FlightAware
12:39PM 33.9520 -118.2390 261° West 210 242 3,200 -1,080 Descending FlightAware
12:40PM 33.9490 -118.2680 263° West 200 230 2,600 -1,140 Descending FlightAware
12:40PM 33.9460 -118.2940 262° West 168 193 1,900 -1,320 Descending FlightAware
12:41PM 33.9440 -118.3170 264° West 162 186 1,100 -1,500 Descending FlightAware
12:41PM 33.9430 -118.3300 265° West 147 169 800 -420 Descending FlightAware
12:42PM 33.9410 -118.3490 263° West 147 169 800  Level FlightAware